createdAt,value
2023-05-18T00:00:16.388Z,24.16
2023-05-18T00:02:43.349Z,24.16
2023-05-18T00:05:12.732Z,24.17
2023-05-18T00:07:39.515Z,24.16
2023-05-18T00:10:07.232Z,24.14
2023-05-18T00:12:33.807Z,24.15
2023-05-18T00:15:00.326Z,24.15
2023-05-18T00:17:27.047Z,24.15
2023-05-18T00:19:53.595Z,24.14
2023-05-18T00:22:20.155Z,24.14
2023-05-18T00:24:47.756Z,24.13
2023-05-18T00:27:15.162Z,24.13
2023-05-18T00:29:41.814Z,24.14
2023-05-18T00:32:08.373Z,24.13
2023-05-18T00:34:36.948Z,24.12
2023-05-18T00:37:03.625Z,24.12
2023-05-18T00:39:30.169Z,24.12
2023-05-18T00:41:56.668Z,24.12
2023-05-18T00:44:24.779Z,24.12
2023-05-18T00:46:52.004Z,24.11
2023-05-18T00:49:19.016Z,24.10
2023-05-18T00:51:46.180Z,24.09
2023-05-18T00:54:12.907Z,24.10
2023-05-18T00:56:42.468Z,24.09
2023-05-18T00:59:12.340Z,24.09
2023-05-18T01:01:43.868Z,24.08
2023-05-18T01:04:14.230Z,24.07
2023-05-18T01:06:42.669Z,24.08
2023-05-18T01:09:12.058Z,24.08
2023-05-18T01:12:06.031Z,24.08
2023-05-18T01:14:50.258Z,24.07
2023-05-18T01:17:39.799Z,24.06
2023-05-18T01:20:28.710Z,24.04
2023-05-18T01:23:14.652Z,24.04
2023-05-18T01:25:56.631Z,24.03
2023-05-18T01:28:27.904Z,24.03
2023-05-18T01:30:55.532Z,24.03
2023-05-18T01:33:22.395Z,24.03
2023-05-18T01:35:49.025Z,24.03
2023-05-18T01:38:18.194Z,24.03
2023-05-18T01:41:16.819Z,24.03
2023-05-18T01:44:15.968Z,24.02
2023-05-18T01:47:04.277Z,24.00
2023-05-18T01:49:46.459Z,24.00
2023-05-18T01:52:23.000Z,23.99
2023-05-18T01:54:56.356Z,24.00
2023-05-18T01:57:27.254Z,24.00
2023-05-18T01:59:55.413Z,23.99
2023-05-18T02:02:22.748Z,23.99
2023-05-18T02:04:49.646Z,24.00
2023-05-18T02:07:16.348Z,24.00
2023-05-18T02:09:44.329Z,23.99
2023-05-18T02:12:11.284Z,24.00
2023-05-18T02:14:37.916Z,23.99
2023-05-18T02:17:07.086Z,23.99
2023-05-18T02:19:38.321Z,23.99
2023-05-18T02:22:06.912Z,23.99
2023-05-18T02:24:34.439Z,23.99
2023-05-18T02:27:01.456Z,23.98
2023-05-18T02:29:28.128Z,23.99
2023-05-18T02:31:55.953Z,23.98
2023-05-18T02:34:23.054Z,23.98
2023-05-18T02:36:49.573Z,23.98
2023-05-18T02:39:17.302Z,23.98
2023-05-18T02:41:43.860Z,23.98
2023-05-18T02:44:12.365Z,23.98
2023-05-18T02:46:39.135Z,23.97
2023-05-18T02:49:06.761Z,23.97
2023-05-18T02:51:33.424Z,23.97
2023-05-18T02:54:01.027Z,23.97
2023-05-18T02:56:28.939Z,23.97
2023-05-18T02:59:08.701Z,23.96
2023-05-18T03:01:41.325Z,23.95
2023-05-18T03:04:08.508Z,23.95
2023-05-18T03:06:40.256Z,23.94
2023-05-18T03:09:06.786Z,23.94
2023-05-18T03:11:40.799Z,23.94
2023-05-18T03:14:08.492Z,23.94
2023-05-18T03:16:38.798Z,23.94
2023-05-18T03:19:09.110Z,23.93
2023-05-18T03:21:38.792Z,23.93
2023-05-18T03:24:06.630Z,23.93
2023-05-18T03:26:36.300Z,23.92
2023-05-18T03:29:03.992Z,23.92
2023-05-18T03:31:30.663Z,23.92
2023-05-18T03:33:59.697Z,23.92
2023-05-18T03:36:27.990Z,23.92
2023-05-18T03:38:54.547Z,23.91
2023-05-18T03:41:22.188Z,23.91
2023-05-18T03:43:49.517Z,23.91
2023-05-18T03:46:16.355Z,23.91
2023-05-18T03:48:42.905Z,23.91
2023-05-18T03:51:09.515Z,23.89
2023-05-18T03:53:36.378Z,23.90
2023-05-18T03:56:02.949Z,23.89
2023-05-18T03:58:29.993Z,23.89
2023-05-18T04:00:58.899Z,23.88
2023-05-18T04:03:27.134Z,23.88
2023-05-18T04:05:54.124Z,23.88
2023-05-18T04:08:20.662Z,23.87
2023-05-18T04:10:47.402Z,23.87
2023-05-18T04:13:13.905Z,23.87
2023-05-18T04:15:40.430Z,23.87
2023-05-18T04:18:08.176Z,23.87
2023-05-18T04:20:34.898Z,23.87
2023-05-18T04:23:01.443Z,23.86
2023-05-18T04:25:28.553Z,23.86
2023-05-18T04:27:55.966Z,23.87
2023-05-18T04:30:23.840Z,23.86
2023-05-18T04:32:51.253Z,23.86
2023-05-18T04:35:18.641Z,23.86
2023-05-18T04:37:45.418Z,23.85
2023-05-18T04:40:18.610Z,23.84
2023-05-18T04:42:50.033Z,23.85
2023-05-18T04:45:26.099Z,23.84
2023-05-18T04:47:54.794Z,23.85
2023-05-18T04:50:23.919Z,23.84
2023-05-18T04:52:51.518Z,23.83
2023-05-18T04:55:28.681Z,23.85
2023-05-18T04:58:00.453Z,23.83
2023-05-18T05:00:29.192Z,23.84
2023-05-18T05:02:57.204Z,23.83
2023-05-18T05:05:25.721Z,23.82
2023-05-18T05:07:53.664Z,23.83
2023-05-18T05:10:21.086Z,23.82
2023-05-18T05:12:49.815Z,23.84
2023-05-18T05:15:16.907Z,23.83
2023-05-18T05:17:43.693Z,23.83
2023-05-18T05:20:10.573Z,23.83
2023-05-18T05:22:37.241Z,23.83
2023-05-18T05:25:06.366Z,23.83
2023-05-18T05:27:33.915Z,23.82
2023-05-18T05:30:01.810Z,23.82
2023-05-18T05:32:28.394Z,23.83
2023-05-18T05:34:54.964Z,23.83
2023-05-18T05:37:21.718Z,23.83
2023-05-18T05:39:49.805Z,23.84
2023-05-18T05:42:25.666Z,23.84
2023-05-18T05:44:52.657Z,23.82
2023-05-18T05:47:20.044Z,23.83
2023-05-18T05:49:46.854Z,23.83
2023-05-18T05:52:13.497Z,23.83
2023-05-18T05:54:41.783Z,23.82
2023-05-18T05:57:09.601Z,23.82
2023-05-18T05:59:36.622Z,23.83
2023-05-18T06:02:03.343Z,23.83
2023-05-18T06:04:30.184Z,23.83
2023-05-18T06:06:57.612Z,23.83
2023-05-18T06:09:24.236Z,23.83
2023-05-18T06:11:50.782Z,23.83
2023-05-18T06:14:17.731Z,23.83
2023-05-18T06:16:44.932Z,23.82
2023-05-18T06:19:11.602Z,23.83
2023-05-18T06:21:38.481Z,23.83
2023-05-18T06:24:05.832Z,23.83
2023-05-18T06:26:39.872Z,23.80
2023-05-18T06:29:30.558Z,23.77
2023-05-18T06:32:00.372Z,23.80
2023-05-18T06:34:41.031Z,23.79
2023-05-18T06:37:07.627Z,23.80
2023-05-18T06:39:34.224Z,23.79
2023-05-18T06:42:01.030Z,23.80
2023-05-18T06:44:33.393Z,23.80
2023-05-18T06:47:09.679Z,23.80
2023-05-18T06:49:36.744Z,23.80
2023-05-18T06:52:04.127Z,23.81
2023-05-18T06:54:31.906Z,23.81
2023-05-18T06:56:59.386Z,23.82
2023-05-18T06:59:25.977Z,23.82
2023-05-18T07:01:52.716Z,23.83
2023-05-18T07:04:20.646Z,23.82
2023-05-18T07:06:47.138Z,23.83
2023-05-18T07:09:13.682Z,23.83
2023-05-18T07:11:40.493Z,23.83
2023-05-18T07:14:07.145Z,23.84
2023-05-18T07:16:34.087Z,23.84
2023-05-18T07:19:00.804Z,23.84
2023-05-18T07:21:27.351Z,23.84
2023-05-18T07:23:53.921Z,23.84
2023-05-18T07:26:22.401Z,23.84
2023-05-18T07:28:49.603Z,23.84
2023-05-18T07:31:16.732Z,23.84
2023-05-18T07:33:44.633Z,23.85
2023-05-18T07:36:11.192Z,23.85
2023-05-18T07:38:37.752Z,23.86
2023-05-18T07:41:04.327Z,23.85
2023-05-18T07:43:30.930Z,23.85
2023-05-18T07:45:57.497Z,23.86
2023-05-18T07:48:24.066Z,23.86
2023-05-18T07:50:50.571Z,23.87
2023-05-18T07:53:17.302Z,23.87
2023-05-18T07:55:43.874Z,23.87
2023-05-18T07:58:10.584Z,23.87
2023-05-18T08:00:37.517Z,23.86
2023-05-18T08:03:04.500Z,23.87
2023-05-18T08:05:31.371Z,23.87
2023-05-18T08:07:58.086Z,23.87
2023-05-18T08:10:24.886Z,23.87
2023-05-18T08:12:52.853Z,23.87
2023-05-18T08:15:19.387Z,23.87
2023-05-18T08:17:47.316Z,23.87
2023-05-18T08:20:13.888Z,23.88
2023-05-18T08:22:40.480Z,23.88
2023-05-18T08:25:07.331Z,23.88
2023-05-18T08:27:33.884Z,23.87
2023-05-18T08:30:00.696Z,23.88
2023-05-18T08:32:27.883Z,23.88
2023-05-18T08:34:54.493Z,23.89
2023-05-18T08:37:22.155Z,23.89
2023-05-18T08:39:48.741Z,23.90
2023-05-18T08:42:49.152Z,23.90
2023-05-18T08:45:25.614Z,23.88
2023-05-18T08:47:56.049Z,23.89
2023-05-18T08:50:24.733Z,23.89
2023-05-18T08:52:55.631Z,23.90
2023-05-18T08:55:23.569Z,23.90
2023-05-18T08:57:59.890Z,23.92
2023-05-18T09:00:27.085Z,23.90
2023-05-18T09:02:54.098Z,23.90
2023-05-18T09:05:21.555Z,23.92
2023-05-18T09:07:49.979Z,23.92
2023-05-18T09:10:17.411Z,23.93
2023-05-18T09:12:46.778Z,23.93
2023-05-18T09:15:15.855Z,23.93
2023-05-18T09:17:42.480Z,23.93
2023-05-18T09:20:10.167Z,23.94
2023-05-18T09:22:36.901Z,23.95
2023-05-18T09:25:04.097Z,23.94
2023-05-18T09:27:31.086Z,23.94
2023-05-18T09:29:58.760Z,23.95
2023-05-18T09:32:26.225Z,23.95
2023-05-18T09:34:53.555Z,23.95
2023-05-18T09:37:21.599Z,23.95
2023-05-18T09:39:59.314Z,23.96
2023-05-18T09:42:39.184Z,23.97
2023-05-18T09:45:19.371Z,23.96
2023-05-18T09:47:46.866Z,23.95
2023-05-18T09:50:13.519Z,23.96
2023-05-18T09:52:47.266Z,23.97
2023-05-18T09:55:16.634Z,23.95
2023-05-18T09:57:47.671Z,23.95
2023-05-18T10:00:16.920Z,23.97
2023-05-18T10:02:52.176Z,23.96
2023-05-18T10:05:23.139Z,23.97
2023-05-18T10:07:54.138Z,23.97
2023-05-18T10:10:23.413Z,23.96
2023-05-18T10:12:54.854Z,23.97
2023-05-18T10:15:23.003Z,23.97
2023-05-18T10:17:51.362Z,23.97
2023-05-18T10:20:19.698Z,23.97
2023-05-18T10:22:48.052Z,23.97
2023-05-18T10:25:26.486Z,23.99
2023-05-18T10:27:58.422Z,23.99
2023-05-18T10:30:26.594Z,23.98
2023-05-18T10:32:56.870Z,23.97
2023-05-18T10:35:24.328Z,23.97
2023-05-18T10:37:53.230Z,23.99
2023-05-18T10:40:21.091Z,23.97
2023-05-18T10:42:49.033Z,23.98
2023-05-18T10:45:15.723Z,23.98
2023-05-18T10:47:44.097Z,23.98
2023-05-18T10:50:11.180Z,23.98
2023-05-18T10:52:38.285Z,23.98
2023-05-18T10:55:06.868Z,23.99
2023-05-18T10:57:44.379Z,24.00
2023-05-18T11:00:11.326Z,23.99
2023-05-18T11:02:42.450Z,23.98
2023-05-18T11:05:10.547Z,23.98
2023-05-18T11:07:37.849Z,23.98
2023-05-18T11:10:09.564Z,23.99
2023-05-18T11:12:40.753Z,23.99
2023-05-18T11:15:07.975Z,23.97
2023-05-18T11:17:34.711Z,23.98
2023-05-18T11:20:07.933Z,23.98
2023-05-18T11:22:48.188Z,23.99
2023-05-18T11:25:32.738Z,23.99
2023-05-18T11:28:07.632Z,23.97
2023-05-18T11:30:34.354Z,23.93
2023-05-18T11:33:43.011Z,23.93
2023-05-18T11:36:15.031Z,23.93
2023-05-18T11:38:47.825Z,23.96
2023-05-18T11:41:39.418Z,23.96
2023-05-18T11:44:12.369Z,23.94
2023-05-18T11:47:02.319Z,23.96
2023-05-18T11:49:33.007Z,23.95
2023-05-18T11:52:22.548Z,23.97
2023-05-18T11:55:01.423Z,23.96
2023-05-18T11:57:33.653Z,23.96
2023-05-18T12:00:01.412Z,23.96
2023-05-18T12:02:33.703Z,23.97
2023-05-18T12:05:02.328Z,23.97
2023-05-18T12:07:32.065Z,23.98
2023-05-18T12:10:01.222Z,23.99
2023-05-18T12:12:28.560Z,23.99
2023-05-18T12:14:57.963Z,23.99
2023-05-18T12:17:57.742Z,24.00
2023-05-18T12:20:31.346Z,23.99
2023-05-18T12:22:58.255Z,23.98
2023-05-18T12:25:27.849Z,23.99
2023-05-18T12:27:55.274Z,24.00
2023-05-18T12:30:23.428Z,24.01
2023-05-18T12:32:56.496Z,24.01
2023-05-18T12:35:27.626Z,24.01
2023-05-18T12:38:00.158Z,24.01
2023-05-18T12:40:28.087Z,24.01
2023-05-18T12:43:05.283Z,24.02
2023-05-18T12:45:34.373Z,24.01
2023-05-18T12:48:08.924Z,24.02
2023-05-18T12:50:37.231Z,24.00
2023-05-18T12:53:04.072Z,24.01
2023-05-18T12:55:32.384Z,24.01
2023-05-18T12:58:18.363Z,24.02
2023-05-18T13:00:46.941Z,24.01
2023-05-18T13:03:16.294Z,24.01
2023-05-18T13:05:45.484Z,24.01
2023-05-18T13:08:21.787Z,24.02
2023-05-18T13:10:55.572Z,24.01
2023-05-18T13:13:28.572Z,24.01
2023-05-18T13:15:55.195Z,24.02
2023-05-18T13:18:21.845Z,24.02
2023-05-18T13:20:54.112Z,24.03
2023-05-18T13:23:27.297Z,24.02
2023-05-18T13:25:55.508Z,24.03
2023-05-18T13:28:24.062Z,24.02
2023-05-18T13:30:50.793Z,24.04
2023-05-18T13:33:19.282Z,24.04
2023-05-18T13:35:46.694Z,24.04
2023-05-18T13:38:14.313Z,24.04
2023-05-18T13:40:42.131Z,24.05
2023-05-18T13:43:10.988Z,24.06
2023-05-18T13:45:39.705Z,24.06
2023-05-18T13:48:09.654Z,24.06
2023-05-18T13:50:37.360Z,24.05
2023-05-18T13:53:04.067Z,24.06
2023-05-18T13:55:31.024Z,24.07
2023-05-18T13:57:57.822Z,24.06
2023-05-18T14:00:24.776Z,24.07
2023-05-18T14:02:53.220Z,24.07
2023-05-18T14:05:20.425Z,24.08
2023-05-18T14:07:46.990Z,24.07
2023-05-18T14:10:13.597Z,24.08
2023-05-18T14:12:42.371Z,24.08
2023-05-18T14:15:09.941Z,24.09
2023-05-18T14:17:36.616Z,24.09
2023-05-18T14:20:05.270Z,24.10
2023-05-18T14:22:32.161Z,24.10
2023-05-18T14:24:58.639Z,24.11
2023-05-18T14:27:25.160Z,24.11
2023-05-18T14:29:51.708Z,24.13
2023-05-18T14:32:20.725Z,24.14
2023-05-18T14:34:48.174Z,24.14
2023-05-18T14:37:14.697Z,24.16
2023-05-18T14:39:41.317Z,24.16
2023-05-18T14:42:08.006Z,24.17
2023-05-18T14:44:34.508Z,24.18
2023-05-18T14:47:01.513Z,24.18
2023-05-18T14:49:28.094Z,24.19
2023-05-18T14:51:54.704Z,24.20
2023-05-18T14:54:22.365Z,24.21
2023-05-18T14:56:49.071Z,24.22
2023-05-18T14:59:15.686Z,24.23
2023-05-18T15:01:42.298Z,24.23
2023-05-18T15:04:09.048Z,24.23
2023-05-18T15:06:37.465Z,24.24
2023-05-18T15:09:06.141Z,24.25
2023-05-18T15:11:32.711Z,24.26
2023-05-18T15:13:59.205Z,24.26
2023-05-18T15:16:25.869Z,24.28
2023-05-18T15:18:52.433Z,24.29
2023-05-18T15:21:18.925Z,24.30
2023-05-18T15:23:45.470Z,24.31
2023-05-18T15:26:12.289Z,24.33
2023-05-18T15:28:38.843Z,24.34
2023-05-18T15:31:05.407Z,24.34
2023-05-18T15:33:31.868Z,24.35
2023-05-18T15:35:58.397Z,24.37
2023-05-18T15:38:25.243Z,24.38
2023-05-18T15:40:52.425Z,24.37
2023-05-18T15:43:20.186Z,24.39
2023-05-18T15:45:46.848Z,24.40
2023-05-18T15:48:13.405Z,24.41
2023-05-18T15:50:39.959Z,24.41
2023-05-18T15:53:06.511Z,24.42
2023-05-18T15:55:33.101Z,24.43
2023-05-18T15:57:59.585Z,24.43
2023-05-18T16:00:26.404Z,24.43
2023-05-18T16:02:53.159Z,24.44
2023-05-18T16:05:19.825Z,24.44
2023-05-18T16:07:46.671Z,24.46
2023-05-18T16:10:14.485Z,24.46
2023-05-18T16:12:41.161Z,24.47
2023-05-18T16:15:08.159Z,24.47
2023-05-18T16:17:34.735Z,24.47
2023-05-18T16:20:03.481Z,24.48
2023-05-18T16:22:30.472Z,24.49
2023-05-18T16:24:58.843Z,24.49
2023-05-18T16:27:25.642Z,24.50
2023-05-18T16:29:52.182Z,24.50
2023-05-18T16:32:18.878Z,24.51
2023-05-18T16:34:45.537Z,24.52
2023-05-18T16:37:12.086Z,24.52
2023-05-18T16:39:38.617Z,24.52
2023-05-18T16:42:05.455Z,24.53
2023-05-18T16:44:32.934Z,24.53
2023-05-18T16:46:59.564Z,24.55
2023-05-18T16:49:26.207Z,24.55
2023-05-18T16:51:52.930Z,24.56
2023-05-18T16:54:19.516Z,24.58
2023-05-18T16:56:46.236Z,24.58
2023-05-18T16:59:12.736Z,24.61
2023-05-18T17:01:39.292Z,24.60
2023-05-18T17:04:06.143Z,24.62
2023-05-18T17:06:32.748Z,24.65
2023-05-18T17:08:59.320Z,24.69
2023-05-18T17:11:27.062Z,24.75
2023-05-18T17:13:54.397Z,24.80
2023-05-18T17:16:22.206Z,24.88
2023-05-18T17:18:49.257Z,24.96
2023-05-18T17:21:16.432Z,25.04
2023-05-18T17:23:54.931Z,25.12
2023-05-18T17:26:22.307Z,25.19
2023-05-18T17:28:48.822Z,25.24
2023-05-18T17:31:17.863Z,25.27
2023-05-18T17:33:47.175Z,25.28
2023-05-18T17:36:17.245Z,25.27
2023-05-18T17:38:44.766Z,25.24
2023-05-18T17:41:11.445Z,25.18
2023-05-18T17:43:38.293Z,25.15
2023-05-18T17:46:04.880Z,25.11
2023-05-18T17:48:31.409Z,25.07
2023-05-18T17:50:58.051Z,25.02
2023-05-18T17:53:24.633Z,24.99
2023-05-18T17:55:52.398Z,24.95
2023-05-18T17:58:18.948Z,24.92
2023-05-18T18:00:45.616Z,24.91
2023-05-18T18:03:12.558Z,24.87
2023-05-18T18:05:39.285Z,24.86
2023-05-18T18:08:05.939Z,24.83
2023-05-18T18:10:33.221Z,24.81
2023-05-18T18:13:00.057Z,24.78
2023-05-18T18:15:27.956Z,24.75
2023-05-18T18:17:56.090Z,24.74
2023-05-18T18:20:22.817Z,24.71
2023-05-18T18:22:49.535Z,24.68
2023-05-18T18:25:16.088Z,24.65
2023-05-18T18:27:42.603Z,24.65
2023-05-18T18:30:09.684Z,24.64
2023-05-18T18:32:36.323Z,24.63
2023-05-18T18:35:02.991Z,24.62
2023-05-18T18:37:29.514Z,24.61
2023-05-18T18:39:56.226Z,24.59
2023-05-18T18:42:22.865Z,24.57
2023-05-18T18:44:52.837Z,24.56
2023-05-18T18:47:19.477Z,24.56
2023-05-18T18:49:46.007Z,24.55
2023-05-18T18:52:13.757Z,24.54
2023-05-18T18:54:40.590Z,24.53
2023-05-18T18:57:07.205Z,24.52
2023-05-18T18:59:35.420Z,24.50
2023-05-18T19:02:02.064Z,24.50
2023-05-18T19:04:28.750Z,24.50
2023-05-18T19:06:55.973Z,24.48
2023-05-18T19:09:22.873Z,24.47
2023-05-18T19:11:49.676Z,24.45
2023-05-18T19:14:16.441Z,24.44
2023-05-18T19:16:43.154Z,24.42
2023-05-18T19:19:09.983Z,24.42
2023-05-18T19:21:37.047Z,24.40
2023-05-18T19:24:07.417Z,24.39
2023-05-18T19:26:34.524Z,24.38
2023-05-18T19:29:01.049Z,24.36
2023-05-18T19:31:27.731Z,24.34
2023-05-18T19:33:54.314Z,24.33
2023-05-18T19:36:21.071Z,24.32
2023-05-18T19:38:47.928Z,24.31
2023-05-18T19:41:14.634Z,24.30
2023-05-18T19:43:41.191Z,24.29
2023-05-18T19:46:07.834Z,24.28
2023-05-18T19:48:34.521Z,24.27
2023-05-18T19:51:02.495Z,24.27
2023-05-18T19:53:29.095Z,24.27
2023-05-18T19:55:56.316Z,24.26
2023-05-18T19:58:22.849Z,24.25
2023-05-18T20:00:49.676Z,24.24
2023-05-18T20:03:16.684Z,24.23
2023-05-18T20:05:43.731Z,24.23
2023-05-18T20:08:12.537Z,24.21
2023-05-18T20:10:39.892Z,24.23
2023-05-18T20:13:06.587Z,24.22
2023-05-18T20:15:36.711Z,24.21
2023-05-18T20:18:06.622Z,24.20
2023-05-18T20:20:35.543Z,24.20
2023-05-18T20:23:03.162Z,24.20
2023-05-18T20:25:35.133Z,24.19
2023-05-18T20:28:03.448Z,24.19
2023-05-18T20:30:30.598Z,24.18
2023-05-18T20:33:00.242Z,24.18
2023-05-18T20:35:26.921Z,24.17
2023-05-18T20:37:55.863Z,24.16
2023-05-18T20:40:23.354Z,24.16
2023-05-18T20:42:54.228Z,24.15
2023-05-18T20:45:25.313Z,24.15
2023-05-18T20:47:52.567Z,24.14
2023-05-18T20:50:20.365Z,24.14
2023-05-18T20:52:47.591Z,24.14
2023-05-18T20:55:14.891Z,24.13
2023-05-18T20:57:44.524Z,24.14
2023-05-18T21:00:12.958Z,24.12
2023-05-18T21:02:41.627Z,24.13
2023-05-18T21:05:08.795Z,24.13
2023-05-18T21:07:37.891Z,24.12
2023-05-18T21:10:04.837Z,24.11
2023-05-18T21:12:31.873Z,24.11
2023-05-18T21:14:58.335Z,24.11
2023-05-18T21:17:24.975Z,24.11
2023-05-18T21:19:52.690Z,24.11
2023-05-18T21:22:19.928Z,24.10
2023-05-18T21:24:46.511Z,24.11
2023-05-18T21:27:13.120Z,24.10
2023-05-18T21:29:39.659Z,24.08
2023-05-18T21:32:06.580Z,24.08
2023-05-18T21:34:33.169Z,24.07
2023-05-18T21:36:59.732Z,24.07
2023-05-18T21:39:26.290Z,24.07
2023-05-18T21:41:52.812Z,24.07
2023-05-18T21:44:19.388Z,24.07
2023-05-18T21:46:45.903Z,24.06
2023-05-18T21:49:12.707Z,24.06
2023-05-18T21:51:39.346Z,24.07
2023-05-18T21:54:06.189Z,24.05
2023-05-18T21:56:34.632Z,24.04
2023-05-18T21:59:01.228Z,24.06
2023-05-18T22:01:28.052Z,24.05
2023-05-18T22:03:54.677Z,24.06
2023-05-18T22:06:21.314Z,24.05
2023-05-18T22:08:47.998Z,24.07
2023-05-18T22:11:14.922Z,24.07
2023-05-18T22:13:41.551Z,24.07
2023-05-18T22:16:08.140Z,24.10
2023-05-18T22:18:34.654Z,24.08
2023-05-18T22:21:01.213Z,24.09
2023-05-18T22:23:27.952Z,24.08
2023-05-18T22:25:54.516Z,24.09
2023-05-18T22:28:21.732Z,24.08
2023-05-18T22:30:50.331Z,24.09
2023-05-18T22:33:17.029Z,24.08
2023-05-18T22:35:44.704Z,24.08
2023-05-18T22:38:11.815Z,24.09
2023-05-18T22:40:38.513Z,24.09
2023-05-18T22:43:05.550Z,24.08
2023-05-18T22:45:33.306Z,24.08
2023-05-18T22:48:01.458Z,24.08
2023-05-18T22:50:28.678Z,24.07
2023-05-18T22:52:55.376Z,24.07
2023-05-18T22:55:21.882Z,24.08
2023-05-18T22:57:48.487Z,24.08
2023-05-18T23:00:15.571Z,24.08
2023-05-18T23:02:42.514Z,24.08
2023-05-18T23:05:09.494Z,24.07
2023-05-18T23:07:36.209Z,24.07
2023-05-18T23:10:07.475Z,24.07
2023-05-18T23:12:34.360Z,24.06
2023-05-18T23:15:03.977Z,24.06
2023-05-18T23:17:34.059Z,24.06
2023-05-18T23:20:07.648Z,24.06
2023-05-18T23:22:34.886Z,24.05
2023-05-18T23:25:02.296Z,24.04
2023-05-18T23:27:28.808Z,24.03
2023-05-18T23:29:55.345Z,24.03
2023-05-18T23:32:22.195Z,24.03
2023-05-18T23:34:49.381Z,24.03
2023-05-18T23:37:18.368Z,24.02
2023-05-18T23:39:46.103Z,24.02
2023-05-18T23:42:13.644Z,24.02
2023-05-18T23:44:40.516Z,24.01
2023-05-18T23:47:07.345Z,24.01
2023-05-18T23:49:34.081Z,24.02
2023-05-18T23:52:02.250Z,24.02
2023-05-18T23:54:29.537Z,23.99
2023-05-18T23:56:56.900Z,24.00
2023-05-18T23:59:25.262Z,23.99
